sensor_id;sensor_type;location;lat;lon;timestamp;P1;durP1;ratioP1;P2;durP2;ratioP2
8574;SDS011;4325;42.520;27.448;2023-02-15T00:01:30;23.53;;;16.00;;
8574;SDS011;4325;42.520;27.448;2023-02-15T00:03:57;27.73;;;16.40;;
8574;SDS011;4325;42.520;27.448;2023-02-15T00:06:24;33.10;;;18.80;;
8574;SDS011;4325;42.520;27.448;2023-02-15T00:08:51;34.07;;;19.00;;
8574;SDS011;4325;42.520;27.448;2023-02-15T00:11:19;28.93;;;17.20;;
8574;SDS011;4325;42.520;27.448;2023-02-15T00:14:04;41.90;;;19.23;;
8574;SDS011;4325;42.520;27.448;2023-02-15T00:16:34;30.13;;;20.17;;
8574;SDS011;4325;42.520;27.448;2023-02-15T00:19:01;33.37;;;21.20;;
8574;SDS011;4325;42.520;27.448;2023-02-15T00:21:28;32.20;;;20.70;;
8574;SDS011;4325;42.520;27.448;2023-02-15T00:23:55;38.03;;;19.40;;
8574;SDS011;4325;42.520;27.448;2023-02-15T00:26:23;32.97;;;20.03;;
8574;SDS011;4325;42.520;27.448;2023-02-15T00:28:50;31.50;;;19.70;;
8574;SDS011;4325;42.520;27.448;2023-02-15T00:31:17;36.23;;;20.57;;
8574;SDS011;4325;42.520;27.448;2023-02-15T00:33:45;38.13;;;21.77;;
8574;SDS011;4325;42.520;27.448;2023-02-15T00:36:12;31.67;;;20.87;;
8574;SDS011;4325;42.520;27.448;2023-02-15T00:38:39;33.43;;;19.57;;
8574;SDS011;4325;42.520;27.448;2023-02-15T00:41:07;36.30;;;22.10;;
8574;SDS011;4325;42.520;27.448;2023-02-15T00:43:34;31.93;;;21.50;;
8574;SDS011;4325;42.520;27.448;2023-02-15T00:46:02;31.30;;;19.33;;
8574;SDS011;4325;42.520;27.448;2023-02-15T00:48:30;39.37;;;21.50;;
8574;SDS011;4325;42.520;27.448;2023-02-15T00:50:58;34.10;;;21.47;;
8574;SDS011;4325;42.520;27.448;2023-02-15T00:53:27;30.90;;;21.30;;
8574;SDS011;4325;42.520;27.448;2023-02-15T00:55:55;31.77;;;20.10;;
8574;SDS011;4325;42.520;27.448;2023-02-15T00:58:22;31.83;;;19.07;;
8574;SDS011;4325;42.520;27.448;2023-02-15T01:00:49;28.93;;;17.07;;
8574;SDS011;4325;42.520;27.448;2023-02-15T01:03:16;26.47;;;17.60;;
8574;SDS011;4325;42.520;27.448;2023-02-15T01:05:44;25.93;;;17.60;;
8574;SDS011;4325;42.520;27.448;2023-02-15T01:08:14;28.90;;;18.07;;
8574;SDS011;4325;42.520;27.448;2023-02-15T01:10:41;26.97;;;18.40;;
8574;SDS011;4325;42.520;27.448;2023-02-15T01:13:09;26.13;;;17.63;;
8574;SDS011;4325;42.520;27.448;2023-02-15T01:15:36;26.50;;;17.97;;
8574;SDS011;4325;42.520;27.448;2023-02-15T01:18:03;28.27;;;18.57;;
8574;SDS011;4325;42.520;27.448;2023-02-15T01:20:33;26.73;;;16.77;;
8574;SDS011;4325;42.520;27.448;2023-02-15T01:23:04;27.40;;;18.30;;
8574;SDS011;4325;42.520;27.448;2023-02-15T01:25:33;27.53;;;17.13;;
8574;SDS011;4325;42.520;27.448;2023-02-15T01:28:01;28.37;;;17.87;;
8574;SDS011;4325;42.520;27.448;2023-02-15T01:30:28;30.90;;;18.60;;
8574;SDS011;4325;42.520;27.448;2023-02-15T01:32:55;30.23;;;19.70;;
8574;SDS011;4325;42.520;27.448;2023-02-15T01:35:22;31.97;;;20.97;;
8574;SDS011;4325;42.520;27.448;2023-02-15T01:37:49;34.43;;;19.90;;
8574;SDS011;4325;42.520;27.448;2023-02-15T01:40:17;34.80;;;19.77;;
8574;SDS011;4325;42.520;27.448;2023-02-15T01:42:45;32.40;;;20.87;;
8574;SDS011;4325;42.520;27.448;2023-02-15T01:45:18;31.03;;;19.47;;
8574;SDS011;4325;42.520;27.448;2023-02-15T01:47:48;32.87;;;21.27;;
8574;SDS011;4325;42.520;27.448;2023-02-15T01:50:19;35.07;;;22.53;;
8574;SDS011;4325;42.520;27.448;2023-02-15T01:52:51;39.30;;;24.40;;
8574;SDS011;4325;42.520;27.448;2023-02-15T01:55:22;34.03;;;21.53;;
8574;SDS011;4325;42.520;27.448;2023-02-15T01:57:54;33.57;;;21.60;;
8574;SDS011;4325;42.520;27.448;2023-02-15T02:00:21;38.70;;;21.73;;
8574;SDS011;4325;42.520;27.448;2023-02-15T02:02:50;30.67;;;19.13;;
8574;SDS011;4325;42.520;27.448;2023-02-15T02:05:21;36.40;;;20.53;;
8574;SDS011;4325;42.520;27.448;2023-02-15T02:07:48;36.17;;;21.23;;
8574;SDS011;4325;42.520;27.448;2023-02-15T02:10:18;36.83;;;21.50;;
8574;SDS011;4325;42.520;27.448;2023-02-15T02:12:49;29.63;;;20.27;;
8574;SDS011;4325;42.520;27.448;2023-02-15T02:15:19;33.70;;;22.40;;
8574;SDS011;4325;42.520;27.448;2023-02-15T02:17:54;34.30;;;23.27;;
8574;SDS011;4325;42.520;27.448;2023-02-15T02:20:34;34.40;;;20.60;;
8574;SDS011;4325;42.520;27.448;2023-02-15T02:23:25;34.57;;;20.67;;
8574;SDS011;4325;42.520;27.448;2023-02-15T02:29:20;31.73;;;19.70;;
8574;SDS011;4325;42.520;27.448;2023-02-15T02:35:02;31.63;;;19.97;;
8574;SDS011;4325;42.520;27.448;2023-02-15T02:37:41;32.30;;;18.77;;
8574;SDS011;4325;42.520;27.448;2023-02-15T02:40:15;34.33;;;20.43;;
8574;SDS011;4325;42.520;27.448;2023-02-15T02:42:53;30.77;;;18.80;;
8574;SDS011;4325;42.520;27.448;2023-02-15T02:45:26;31.50;;;19.33;;
8574;SDS011;4325;42.520;27.448;2023-02-15T02:47:59;30.13;;;17.73;;
8574;SDS011;4325;42.520;27.448;2023-02-15T02:50:31;33.87;;;19.33;;
8574;SDS011;4325;42.520;27.448;2023-02-15T02:52:58;25.40;;;18.03;;
8574;SDS011;4325;42.520;27.448;2023-02-15T02:55:31;33.60;;;19.63;;
8574;SDS011;4325;42.520;27.448;2023-02-15T02:58:02;29.20;;;18.30;;
8574;SDS011;4325;42.520;27.448;2023-02-15T03:00:35;31.30;;;19.07;;
8574;SDS011;4325;42.520;27.448;2023-02-15T03:03:08;27.83;;;18.43;;
8574;SDS011;4325;42.520;27.448;2023-02-15T03:05:41;27.63;;;18.57;;
8574;SDS011;4325;42.520;27.448;2023-02-15T03:08:12;27.00;;;18.20;;
8574;SDS011;4325;42.520;27.448;2023-02-15T03:10:46;31.37;;;19.50;;
8574;SDS011;4325;42.520;27.448;2023-02-15T03:13:14;28.23;;;18.60;;
8574;SDS011;4325;42.520;27.448;2023-02-15T03:15:42;32.50;;;19.23;;
8574;SDS011;4325;42.520;27.448;2023-02-15T03:18:30;28.73;;;18.63;;
8574;SDS011;4325;42.520;27.448;2023-02-15T03:21:02;28.53;;;19.00;;
8574;SDS011;4325;42.520;27.448;2023-02-15T03:23:32;33.50;;;19.23;;
8574;SDS011;4325;42.520;27.448;2023-02-15T03:26:02;28.77;;;19.03;;
8574;SDS011;4325;42.520;27.448;2023-02-15T03:28:33;26.43;;;17.60;;
8574;SDS011;4325;42.520;27.448;2023-02-15T03:31:05;29.40;;;18.17;;
8574;SDS011;4325;42.520;27.448;2023-02-15T03:33:35;27.93;;;17.60;;
8574;SDS011;4325;42.520;27.448;2023-02-15T03:36:08;28.13;;;17.40;;
8574;SDS011;4325;42.520;27.448;2023-02-15T03:38:45;26.90;;;18.00;;
8574;SDS011;4325;42.520;27.448;2023-02-15T03:41:17;31.40;;;18.10;;
8574;SDS011;4325;42.520;27.448;2023-02-15T03:43:48;34.90;;;17.90;;
8574;SDS011;4325;42.520;27.448;2023-02-15T03:46:21;29.60;;;18.53;;
8574;SDS011;4325;42.520;27.448;2023-02-15T03:48:53;27.80;;;17.60;;
8574;SDS011;4325;42.520;27.448;2023-02-15T03:51:25;31.87;;;17.47;;
8574;SDS011;4325;42.520;27.448;2023-02-15T03:54:02;28.40;;;17.90;;
8574;SDS011;4325;42.520;27.448;2023-02-15T03:56:33;27.50;;;17.70;;
8574;SDS011;4325;42.520;27.448;2023-02-15T03:59:00;28.80;;;17.87;;
8574;SDS011;4325;42.520;27.448;2023-02-15T04:01:46;29.37;;;18.63;;
8574;SDS011;4325;42.520;27.448;2023-02-15T04:04:25;26.90;;;17.57;;
8574;SDS011;4325;42.520;27.448;2023-02-15T04:06:58;28.33;;;16.40;;
8574;SDS011;4325;42.520;27.448;2023-02-15T04:09:25;29.93;;;18.03;;
8574;SDS011;4325;42.520;27.448;2023-02-15T04:12:09;29.47;;;17.17;;
8574;SDS011;4325;42.520;27.448;2023-02-15T04:14:36;28.90;;;16.60;;
8574;SDS011;4325;42.520;27.448;2023-02-15T04:17:20;30.60;;;17.60;;
8574;SDS011;4325;42.520;27.448;2023-02-15T04:19:47;29.00;;;17.40;;
8574;SDS011;4325;42.520;27.448;2023-02-15T04:22:33;26.30;;;16.20;;
8574;SDS011;4325;42.520;27.448;2023-02-15T04:25:17;30.80;;;16.90;;
8574;SDS011;4325;42.520;27.448;2023-02-15T04:27:45;26.60;;;17.17;;
8574;SDS011;4325;42.520;27.448;2023-02-15T04:30:14;33.47;;;17.70;;
8574;SDS011;4325;42.520;27.448;2023-02-15T04:32:43;23.57;;;16.10;;
8574;SDS011;4325;42.520;27.448;2023-02-15T04:35:10;24.13;;;16.20;;
8574;SDS011;4325;42.520;27.448;2023-02-15T04:37:39;26.33;;;16.30;;
8574;SDS011;4325;42.520;27.448;2023-02-15T04:40:07;28.17;;;16.63;;
8574;SDS011;4325;42.520;27.448;2023-02-15T04:42:35;27.53;;;16.00;;
8574;SDS011;4325;42.520;27.448;2023-02-15T04:45:02;25.17;;;16.10;;
8574;SDS011;4325;42.520;27.448;2023-02-15T04:47:29;26.23;;;15.93;;
8574;SDS011;4325;42.520;27.448;2023-02-15T04:49:56;22.57;;;15.37;;
8574;SDS011;4325;42.520;27.448;2023-02-15T04:52:23;24.97;;;14.53;;
8574;SDS011;4325;42.520;27.448;2023-02-15T04:54:51;24.30;;;14.60;;
8574;SDS011;4325;42.520;27.448;2023-02-15T04:57:18;27.10;;;16.03;;
8574;SDS011;4325;42.520;27.448;2023-02-15T04:59:45;29.43;;;14.90;;
8574;SDS011;4325;42.520;27.448;2023-02-15T05:02:12;26.03;;;13.73;;
8574;SDS011;4325;42.520;27.448;2023-02-15T05:04:38;23.43;;;15.23;;
8574;SDS011;4325;42.520;27.448;2023-02-15T05:07:05;22.07;;;14.87;;
8574;SDS011;4325;42.520;27.448;2023-02-15T05:09:32;24.50;;;14.83;;
8574;SDS011;4325;42.520;27.448;2023-02-15T05:12:00;25.07;;;15.37;;
8574;SDS011;4325;42.520;27.448;2023-02-15T05:14:27;22.67;;;14.13;;
8574;SDS011;4325;42.520;27.448;2023-02-15T05:16:54;24.00;;;14.37;;
8574;SDS011;4325;42.520;27.448;2023-02-15T05:19:21;26.20;;;15.43;;
8574;SDS011;4325;42.520;27.448;2023-02-15T05:21:49;22.60;;;14.43;;
8574;SDS011;4325;42.520;27.448;2023-02-15T05:24:16;24.57;;;14.03;;
8574;SDS011;4325;42.520;27.448;2023-02-15T05:27:02;20.90;;;13.37;;
8574;SDS011;4325;42.520;27.448;2023-02-15T05:29:46;22.13;;;14.20;;
8574;SDS011;4325;42.520;27.448;2023-02-15T05:32:13;28.83;;;14.47;;
8574;SDS011;4325;42.520;27.448;2023-02-15T05:34:40;25.33;;;16.00;;
8574;SDS011;4325;42.520;27.448;2023-02-15T05:37:07;21.93;;;13.43;;
8574;SDS011;4325;42.520;27.448;2023-02-15T05:39:34;19.37;;;12.67;;
8574;SDS011;4325;42.520;27.448;2023-02-15T05:42:02;19.47;;;12.03;;
8574;SDS011;4325;42.520;27.448;2023-02-15T05:44:29;20.63;;;12.10;;
8574;SDS011;4325;42.520;27.448;2023-02-15T05:46:56;24.50;;;12.83;;
8574;SDS011;4325;42.520;27.448;2023-02-15T05:49:23;17.23;;;11.73;;
8574;SDS011;4325;42.520;27.448;2023-02-15T05:51:50;19.67;;;10.97;;
8574;SDS011;4325;42.520;27.448;2023-02-15T05:54:16;22.33;;;10.70;;
8574;SDS011;4325;42.520;27.448;2023-02-15T05:56:43;19.10;;;11.40;;
8574;SDS011;4325;42.520;27.448;2023-02-15T05:59:11;19.13;;;10.60;;
8574;SDS011;4325;42.520;27.448;2023-02-15T06:01:38;16.60;;;10.93;;
8574;SDS011;4325;42.520;27.448;2023-02-15T06:04:05;22.10;;;12.03;;
8574;SDS011;4325;42.520;27.448;2023-02-15T06:06:32;28.47;;;13.20;;
8574;SDS011;4325;42.520;27.448;2023-02-15T06:08:59;22.40;;;12.90;;
8574;SDS011;4325;42.520;27.448;2023-02-15T06:11:26;20.13;;;12.23;;
8574;SDS011;4325;42.520;27.448;2023-02-15T06:13:53;23.07;;;14.00;;
8574;SDS011;4325;42.520;27.448;2023-02-15T06:16:21;22.10;;;13.37;;
8574;SDS011;4325;42.520;27.448;2023-02-15T06:18:48;21.90;;;13.77;;
8574;SDS011;4325;42.520;27.448;2023-02-15T06:21:15;21.63;;;14.10;;
8574;SDS011;4325;42.520;27.448;2023-02-15T06:23:42;27.73;;;15.97;;
8574;SDS011;4325;42.520;27.448;2023-02-15T06:26:09;25.37;;;13.73;;
8574;SDS011;4325;42.520;27.448;2023-02-15T06:28:36;20.33;;;12.53;;
8574;SDS011;4325;42.520;27.448;2023-02-15T06:31:03;24.50;;;15.27;;
8574;SDS011;4325;42.520;27.448;2023-02-15T06:33:31;23.97;;;14.30;;
8574;SDS011;4325;42.520;27.448;2023-02-15T06:35:59;24.67;;;14.80;;
8574;SDS011;4325;42.520;27.448;2023-02-15T06:38:26;23.17;;;14.93;;
8574;SDS011;4325;42.520;27.448;2023-02-15T06:40:53;21.97;;;13.87;;
8574;SDS011;4325;42.520;27.448;2023-02-15T06:43:20;18.07;;;12.63;;
8574;SDS011;4325;42.520;27.448;2023-02-15T06:45:47;20.33;;;12.77;;
8574;SDS011;4325;42.520;27.448;2023-02-15T06:48:14;20.63;;;11.67;;
8574;SDS011;4325;42.520;27.448;2023-02-15T06:50:42;20.53;;;12.97;;
8574;SDS011;4325;42.520;27.448;2023-02-15T06:53:09;24.23;;;13.23;;
8574;SDS011;4325;42.520;27.448;2023-02-15T06:55:36;17.77;;;12.57;;
8574;SDS011;4325;42.520;27.448;2023-02-15T06:58:03;15.83;;;11.40;;
8574;SDS011;4325;42.520;27.448;2023-02-15T07:00:29;15.40;;;10.70;;
8574;SDS011;4325;42.520;27.448;2023-02-15T07:02:57;12.53;;;9.33;;
8574;SDS011;4325;42.520;27.448;2023-02-15T07:05:25;13.77;;;9.57;;
8574;SDS011;4325;42.520;27.448;2023-02-15T07:07:57;10.57;;;8.13;;
8574;SDS011;4325;42.520;27.448;2023-02-15T07:10:24;10.17;;;7.90;;
8574;SDS011;4325;42.520;27.448;2023-02-15T07:12:51;14.43;;;9.33;;
8574;SDS011;4325;42.520;27.448;2023-02-15T07:15:17;12.03;;;9.10;;
8574;SDS011;4325;42.520;27.448;2023-02-15T07:17:45;9.90;;;8.37;;
8574;SDS011;4325;42.520;27.448;2023-02-15T07:20:14;12.77;;;8.87;;
8574;SDS011;4325;42.520;27.448;2023-02-15T07:22:42;11.90;;;8.93;;
8574;SDS011;4325;42.520;27.448;2023-02-15T07:25:11;10.47;;;9.30;;
8574;SDS011;4325;42.520;27.448;2023-02-15T07:27:39;9.97;;;8.57;;
8574;SDS011;4325;42.520;27.448;2023-02-15T07:30:07;10.47;;;8.27;;
8574;SDS011;4325;42.520;27.448;2023-02-15T07:32:36;13.17;;;8.20;;
8574;SDS011;4325;42.520;27.448;2023-02-15T07:35:23;10.40;;;8.67;;
8574;SDS011;4325;42.520;27.448;2023-02-15T07:37:50;11.30;;;7.53;;
8574;SDS011;4325;42.520;27.448;2023-02-15T07:40:19;10.43;;;8.10;;
8574;SDS011;4325;42.520;27.448;2023-02-15T07:42:50;9.67;;;8.00;;
8574;SDS011;4325;42.520;27.448;2023-02-15T07:45:19;11.00;;;8.27;;
8574;SDS011;4325;42.520;27.448;2023-02-15T07:47:46;10.37;;;8.50;;
8574;SDS011;4325;42.520;27.448;2023-02-15T07:50:13;10.20;;;9.03;;
8574;SDS011;4325;42.520;27.448;2023-02-15T07:52:40;9.50;;;8.10;;
8574;SDS011;4325;42.520;27.448;2023-02-15T07:55:07;10.67;;;8.43;;
8574;SDS011;4325;42.520;27.448;2023-02-15T07:57:39;9.20;;;6.93;;
8574;SDS011;4325;42.520;27.448;2023-02-15T08:00:09;10.80;;;6.30;;
8574;SDS011;4325;42.520;27.448;2023-02-15T08:02:37;9.80;;;6.80;;
8574;SDS011;4325;42.520;27.448;2023-02-15T08:05:04;7.43;;;6.50;;
8574;SDS011;4325;42.520;27.448;2023-02-15T08:07:31;9.57;;;5.70;;
8574;SDS011;4325;42.520;27.448;2023-02-15T08:09:58;8.50;;;5.73;;
8574;SDS011;4325;42.520;27.448;2023-02-15T08:12:25;6.13;;;5.43;;
8574;SDS011;4325;42.520;27.448;2023-02-15T08:14:53;8.10;;;6.23;;
8574;SDS011;4325;42.520;27.448;2023-02-15T08:17:20;9.33;;;6.13;;
8574;SDS011;4325;42.520;27.448;2023-02-15T08:19:47;8.53;;;5.50;;
8574;SDS011;4325;42.520;27.448;2023-02-15T08:22:14;12.13;;;6.30;;
8574;SDS011;4325;42.520;27.448;2023-02-15T08:24:41;8.13;;;5.97;;
8574;SDS011;4325;42.520;27.448;2023-02-15T08:27:09;6.27;;;5.07;;
8574;SDS011;4325;42.520;27.448;2023-02-15T08:29:36;16.47;;;5.53;;
8574;SDS011;4325;42.520;27.448;2023-02-15T08:32:08;11.60;;;6.10;;
8574;SDS011;4325;42.520;27.448;2023-02-15T08:34:38;7.97;;;5.50;;
8574;SDS011;4325;42.520;27.448;2023-02-15T08:37:06;8.73;;;5.60;;
8574;SDS011;4325;42.520;27.448;2023-02-15T08:39:34;7.37;;;5.37;;
8574;SDS011;4325;42.520;27.448;2023-02-15T08:42:01;11.57;;;5.50;;
8574;SDS011;4325;42.520;27.448;2023-02-15T08:44:28;12.30;;;5.67;;
8574;SDS011;4325;42.520;27.448;2023-02-15T08:46:55;8.80;;;5.37;;
8574;SDS011;4325;42.520;27.448;2023-02-15T08:49:29;19.83;;;5.63;;
8574;SDS011;4325;42.520;27.448;2023-02-15T08:51:55;8.43;;;5.47;;
8574;SDS011;4325;42.520;27.448;2023-02-15T08:54:22;8.80;;;5.83;;
8574;SDS011;4325;42.520;27.448;2023-02-15T08:56:49;10.37;;;5.33;;
8574;SDS011;4325;42.520;27.448;2023-02-15T08:59:17;8.03;;;5.47;;
8574;SDS011;4325;42.520;27.448;2023-02-15T09:01:45;17.60;;;6.07;;
8574;SDS011;4325;42.520;27.448;2023-02-15T09:04:12;8.57;;;5.80;;
8574;SDS011;4325;42.520;27.448;2023-02-15T09:06:42;8.47;;;5.43;;
8574;SDS011;4325;42.520;27.448;2023-02-15T09:09:11;18.83;;;5.40;;
8574;SDS011;4325;42.520;27.448;2023-02-15T09:11:38;20.70;;;6.37;;
8574;SDS011;4325;42.520;27.448;2023-02-15T09:14:07;8.90;;;5.67;;
8574;SDS011;4325;42.520;27.448;2023-02-15T09:16:38;11.60;;;5.77;;
8574;SDS011;4325;42.520;27.448;2023-02-15T09:19:06;9.03;;;6.00;;
8574;SDS011;4325;42.520;27.448;2023-02-15T09:21:34;11.80;;;6.20;;
8574;SDS011;4325;42.520;27.448;2023-02-15T09:24:05;9.23;;;6.07;;
8574;SDS011;4325;42.520;27.448;2023-02-15T09:26:35;9.50;;;6.30;;
8574;SDS011;4325;42.520;27.448;2023-02-15T09:29:04;10.87;;;6.23;;
8574;SDS011;4325;42.520;27.448;2023-02-15T09:31:31;10.27;;;6.10;;
8574;SDS011;4325;42.520;27.448;2023-02-15T09:33:59;10.60;;;5.60;;
8574;SDS011;4325;42.520;27.448;2023-02-15T09:36:28;10.90;;;6.77;;
8574;SDS011;4325;42.520;27.448;2023-02-15T09:38:57;9.40;;;7.00;;
8574;SDS011;4325;42.520;27.448;2023-02-15T09:41:51;10.17;;;6.53;;
8574;SDS011;4325;42.520;27.448;2023-02-15T09:44:34;8.93;;;6.67;;
8574;SDS011;4325;42.520;27.448;2023-02-15T09:47:19;12.47;;;6.87;;
8574;SDS011;4325;42.520;27.448;2023-02-15T09:49:58;11.20;;;6.63;;
8574;SDS011;4325;42.520;27.448;2023-02-15T09:52:34;10.33;;;7.07;;
8574;SDS011;4325;42.520;27.448;2023-02-15T09:55:16;8.80;;;7.10;;
8574;SDS011;4325;42.520;27.448;2023-02-15T09:57:58;10.53;;;6.87;;
8574;SDS011;4325;42.520;27.448;2023-02-15T10:00:34;8.80;;;6.73;;
8574;SDS011;4325;42.520;27.448;2023-02-15T10:03:13;10.60;;;7.57;;
8574;SDS011;4325;42.520;27.448;2023-02-15T10:06:01;11.40;;;6.83;;
8574;SDS011;4325;42.520;27.448;2023-02-15T10:08:47;10.27;;;6.73;;
8574;SDS011;4325;42.520;27.448;2023-02-15T10:11:34;13.87;;;7.47;;
8574;SDS011;4325;42.520;27.448;2023-02-15T10:14:23;12.13;;;7.50;;
8574;SDS011;4325;42.520;27.448;2023-02-15T10:17:19;12.10;;;7.23;;
8574;SDS011;4325;42.520;27.448;2023-02-15T10:20:08;11.57;;;7.77;;
8574;SDS011;4325;42.520;27.448;2023-02-15T10:22:46;11.80;;;7.43;;
8574;SDS011;4325;42.520;27.448;2023-02-15T10:25:31;13.90;;;7.87;;
8574;SDS011;4325;42.520;27.448;2023-02-15T10:28:09;10.67;;;7.37;;
8574;SDS011;4325;42.520;27.448;2023-02-15T10:30:43;10.40;;;7.50;;
8574;SDS011;4325;42.520;27.448;2023-02-15T10:33:16;9.60;;;6.97;;
8574;SDS011;4325;42.520;27.448;2023-02-15T10:36:00;8.53;;;7.13;;
8574;SDS011;4325;42.520;27.448;2023-02-15T10:38:36;12.30;;;7.33;;
8574;SDS011;4325;42.520;27.448;2023-02-15T10:41:12;10.50;;;7.37;;
8574;SDS011;4325;42.520;27.448;2023-02-15T10:43:56;16.60;;;7.77;;
8574;SDS011;4325;42.520;27.448;2023-02-15T10:46:37;8.67;;;7.40;;
8574;SDS011;4325;42.520;27.448;2023-02-15T10:49:26;12.43;;;7.80;;
8574;SDS011;4325;42.520;27.448;2023-02-15T10:52:10;10.90;;;7.70;;
8574;SDS011;4325;42.520;27.448;2023-02-15T10:54:45;9.87;;;7.53;;
8574;SDS011;4325;42.520;27.448;2023-02-15T10:57:19;10.87;;;7.47;;
8574;SDS011;4325;42.520;27.448;2023-02-15T11:00:02;10.50;;;7.17;;
8574;SDS011;4325;42.520;27.448;2023-02-15T11:02:49;11.63;;;8.43;;
8574;SDS011;4325;42.520;27.448;2023-02-15T11:05:35;12.77;;;7.97;;
8574;SDS011;4325;42.520;27.448;2023-02-15T11:08:08;14.77;;;8.50;;
8574;SDS011;4325;42.520;27.448;2023-02-15T11:10:38;15.73;;;8.90;;
8574;SDS011;4325;42.520;27.448;2023-02-15T11:13:09;11.70;;;7.80;;
8574;SDS011;4325;42.520;27.448;2023-02-15T11:15:40;16.33;;;8.30;;
8574;SDS011;4325;42.520;27.448;2023-02-15T11:18:13;11.30;;;8.10;;
8574;SDS011;4325;42.520;27.448;2023-02-15T11:20:48;13.60;;;7.43;;
8574;SDS011;4325;42.520;27.448;2023-02-15T11:23:20;14.83;;;8.50;;
8574;SDS011;4325;42.520;27.448;2023-02-15T11:25:52;13.33;;;8.03;;
8574;SDS011;4325;42.520;27.448;2023-02-15T11:28:24;9.57;;;7.63;;
8574;SDS011;4325;42.520;27.448;2023-02-15T11:30:57;13.47;;;8.13;;
8574;SDS011;4325;42.520;27.448;2023-02-15T11:33:28;12.83;;;8.60;;
8574;SDS011;4325;42.520;27.448;2023-02-15T11:35:59;14.83;;;8.07;;
8574;SDS011;4325;42.520;27.448;2023-02-15T11:38:28;11.13;;;7.90;;
8574;SDS011;4325;42.520;27.448;2023-02-15T11:40:59;10.30;;;8.10;;
8574;SDS011;4325;42.520;27.448;2023-02-15T11:43:32;11.93;;;8.17;;
8574;SDS011;4325;42.520;27.448;2023-02-15T11:46:03;12.07;;;7.93;;
8574;SDS011;4325;42.520;27.448;2023-02-15T11:48:32;12.97;;;7.97;;
8574;SDS011;4325;42.520;27.448;2023-02-15T11:51:00;9.70;;;7.60;;
8574;SDS011;4325;42.520;27.448;2023-02-15T11:53:31;9.83;;;7.83;;
8574;SDS011;4325;42.520;27.448;2023-02-15T11:55:59;14.70;;;7.33;;
8574;SDS011;4325;42.520;27.448;2023-02-15T11:58:30;11.97;;;8.47;;
8574;SDS011;4325;42.520;27.448;2023-02-15T12:01:09;9.50;;;8.23;;
8574;SDS011;4325;42.520;27.448;2023-02-15T12:03:44;20.33;;;9.10;;
8574;SDS011;4325;42.520;27.448;2023-02-15T12:06:18;9.07;;;8.13;;
8574;SDS011;4325;42.520;27.448;2023-02-15T12:09:01;8.70;;;7.77;;
8574;SDS011;4325;42.520;27.448;2023-02-15T12:11:33;10.37;;;7.80;;
8574;SDS011;4325;42.520;27.448;2023-02-15T12:14:03;10.43;;;8.13;;
8574;SDS011;4325;42.520;27.448;2023-02-15T12:16:33;10.00;;;7.83;;
8574;SDS011;4325;42.520;27.448;2023-02-15T12:19:12;11.57;;;8.30;;
8574;SDS011;4325;42.520;27.448;2023-02-15T12:21:49;9.03;;;8.13;;
8574;SDS011;4325;42.520;27.448;2023-02-15T12:24:19;10.70;;;8.20;;
8574;SDS011;4325;42.520;27.448;2023-02-15T12:26:55;11.93;;;8.60;;
8574;SDS011;4325;42.520;27.448;2023-02-15T12:29:26;10.27;;;8.33;;
8574;SDS011;4325;42.520;27.448;2023-02-15T12:31:56;13.57;;;8.73;;
8574;SDS011;4325;42.520;27.448;2023-02-15T12:34:26;10.60;;;8.13;;
8574;SDS011;4325;42.520;27.448;2023-02-15T12:36:59;10.70;;;8.63;;
8574;SDS011;4325;42.520;27.448;2023-02-15T12:39:33;10.77;;;8.90;;
8574;SDS011;4325;42.520;27.448;2023-02-15T12:42:02;11.63;;;8.77;;
8574;SDS011;4325;42.520;27.448;2023-02-15T12:44:31;13.73;;;8.87;;
8574;SDS011;4325;42.520;27.448;2023-02-15T12:47:00;11.63;;;9.30;;
8574;SDS011;4325;42.520;27.448;2023-02-15T12:49:31;10.07;;;8.70;;
8574;SDS011;4325;42.520;27.448;2023-02-15T12:51:59;16.93;;;9.17;;
8574;SDS011;4325;42.520;27.448;2023-02-15T12:54:31;12.70;;;9.03;;
8574;SDS011;4325;42.520;27.448;2023-02-15T12:57:14;11.03;;;8.83;;
8574;SDS011;4325;42.520;27.448;2023-02-15T12:59:47;15.87;;;9.37;;
8574;SDS011;4325;42.520;27.448;2023-02-15T13:02:23;12.47;;;9.27;;
8574;SDS011;4325;42.520;27.448;2023-02-15T13:04:54;9.57;;;8.53;;
8574;SDS011;4325;42.520;27.448;2023-02-15T13:07:24;16.97;;;9.57;;
8574;SDS011;4325;42.520;27.448;2023-02-15T13:09:56;13.13;;;8.93;;
8574;SDS011;4325;42.520;27.448;2023-02-15T13:12:24;14.20;;;8.33;;
8574;SDS011;4325;42.520;27.448;2023-02-15T13:14:55;24.70;;;9.20;;
8574;SDS011;4325;42.520;27.448;2023-02-15T13:17:24;14.67;;;8.97;;
8574;SDS011;4325;42.520;27.448;2023-02-15T13:19:56;10.60;;;7.87;;
8574;SDS011;4325;42.520;27.448;2023-02-15T13:22:31;11.43;;;8.70;;
8574;SDS011;4325;42.520;27.448;2023-02-15T13:25:02;13.77;;;8.33;;
8574;SDS011;4325;42.520;27.448;2023-02-15T13:27:36;11.53;;;8.40;;
8574;SDS011;4325;42.520;27.448;2023-02-15T13:30:12;11.47;;;8.30;;
8574;SDS011;4325;42.520;27.448;2023-02-15T13:32:48;11.40;;;8.57;;
8574;SDS011;4325;42.520;27.448;2023-02-15T13:35:19;13.93;;;9.30;;
8574;SDS011;4325;42.520;27.448;2023-02-15T13:37:54;9.87;;;8.30;;
8574;SDS011;4325;42.520;27.448;2023-02-15T13:40:33;10.63;;;9.17;;
8574;SDS011;4325;42.520;27.448;2023-02-15T13:43:05;12.53;;;9.17;;
8574;SDS011;4325;42.520;27.448;2023-02-15T13:45:51;13.27;;;8.83;;
8574;SDS011;4325;42.520;27.448;2023-02-15T13:48:30;10.23;;;8.87;;
8574;SDS011;4325;42.520;27.448;2023-02-15T13:51:09;10.10;;;9.10;;
8574;SDS011;4325;42.520;27.448;2023-02-15T13:53:51;15.37;;;9.73;;
8574;SDS011;4325;42.520;27.448;2023-02-15T13:56:30;9.67;;;8.50;;
8574;SDS011;4325;42.520;27.448;2023-02-15T13:59:11;11.33;;;8.73;;
8574;SDS011;4325;42.520;27.448;2023-02-15T14:02:11;9.93;;;8.20;;
8574;SDS011;4325;42.520;27.448;2023-02-15T14:05:00;13.80;;;9.17;;
8574;SDS011;4325;42.520;27.448;2023-02-15T14:07:44;9.87;;;8.20;;
8574;SDS011;4325;42.520;27.448;2023-02-15T14:10:43;8.60;;;7.70;;
8574;SDS011;4325;42.520;27.448;2023-02-15T14:16:26;9.70;;;8.70;;
8574;SDS011;4325;42.520;27.448;2023-02-15T14:19:04;10.37;;;7.77;;
8574;SDS011;4325;42.520;27.448;2023-02-15T14:21:42;9.67;;;8.50;;
8574;SDS011;4325;42.520;27.448;2023-02-15T14:24:26;12.87;;;8.77;;
8574;SDS011;4325;42.520;27.448;2023-02-15T14:27:04;10.50;;;8.63;;
8574;SDS011;4325;42.520;27.448;2023-02-15T14:29:49;10.80;;;8.70;;
8574;SDS011;4325;42.520;27.448;2023-02-15T14:32:21;13.47;;;9.57;;
8574;SDS011;4325;42.520;27.448;2023-02-15T14:34:54;10.40;;;8.80;;
8574;SDS011;4325;42.520;27.448;2023-02-15T14:37:27;10.10;;;9.20;;
8574;SDS011;4325;42.520;27.448;2023-02-15T14:40:08;15.03;;;8.80;;
8574;SDS011;4325;42.520;27.448;2023-02-15T14:43:01;11.80;;;9.70;;
8574;SDS011;4325;42.520;27.448;2023-02-15T14:45:35;12.30;;;8.67;;
8574;SDS011;4325;42.520;27.448;2023-02-15T14:48:09;13.10;;;8.87;;
8574;SDS011;4325;42.520;27.448;2023-02-15T14:50:43;10.50;;;7.90;;
8574;SDS011;4325;42.520;27.448;2023-02-15T14:53:22;13.20;;;8.93;;
8574;SDS011;4325;42.520;27.448;2023-02-15T14:59:15;12.27;;;9.23;;
8574;SDS011;4325;42.520;27.448;2023-02-15T15:01:51;12.47;;;9.43;;
8574;SDS011;4325;42.520;27.448;2023-02-15T15:04:23;10.50;;;9.10;;
8574;SDS011;4325;42.520;27.448;2023-02-15T15:07:00;14.37;;;9.33;;
8574;SDS011;4325;42.520;27.448;2023-02-15T15:09:34;14.20;;;9.10;;
8574;SDS011;4325;42.520;27.448;2023-02-15T15:12:18;11.77;;;9.40;;
8574;SDS011;4325;42.520;27.448;2023-02-15T15:15:09;12.87;;;9.10;;
8574;SDS011;4325;42.520;27.448;2023-02-15T15:17:52;15.63;;;9.77;;
8574;SDS011;4325;42.520;27.448;2023-02-15T15:20:40;12.93;;;9.43;;
8574;SDS011;4325;42.520;27.448;2023-02-15T15:26:20;23.07;;;10.00;;
8574;SDS011;4325;42.520;27.448;2023-02-15T15:28:54;17.40;;;10.10;;